sensor_id;sensor_type;location;lat;lon;timestamp;pressure;altitude;pressure_sealevel;temperature;humidity
21086;BME280;72320;50.082;20.000;2024-02-16T00:01:37;99627.09;;;4.14;75.78
21086;BME280;72320;50.082;20.000;2024-02-16T00:04:05;99625.42;;;4.14;75.81
21086;BME280;72320;50.082;20.000;2024-02-16T00:06:30;99622.04;;;4.11;75.65
21086;BME280;72320;50.082;20.000;2024-02-16T00:08:56;99620.67;;;4.05;75.61
21086;BME280;72320;50.082;20.000;2024-02-16T00:11:25;99621.73;;;4.03;75.76
21086;BME280;72320;50.082;20.000;2024-02-16T00:13:54;99620.53;;;4.03;75.76
21086;BME280;72320;50.082;20.000;2024-02-16T00:16:21;99624.31;;;4.02;75.84
21086;BME280;72320;50.082;20.000;2024-02-16T00:18:48;99624.50;;;3.99;75.85
21086;BME280;72320;50.082;20.000;2024-02-16T00:21:14;99623.61;;;3.94;75.84
21086;BME280;72320;50.082;20.000;2024-02-16T00:23:40;99623.73;;;3.89;75.87
21086;BME280;72320;50.082;20.000;2024-02-16T00:26:05;99624.96;;;3.89;75.86
21086;BME280;72320;50.082;20.000;2024-02-16T00:28:34;99620.90;;;3.88;75.95
21086;BME280;72320;50.082;20.000;2024-02-16T00:30:59;99618.85;;;3.84;75.86
21086;BME280;72320;50.082;20.000;2024-02-16T00:33:26;99619.40;;;3.80;75.94
21086;BME280;72320;50.082;20.000;2024-02-16T00:35:55;99617.19;;;3.80;75.92
21086;BME280;72320;50.082;20.000;2024-02-16T00:38:21;99617.45;;;3.79;75.93
21086;BME280;72320;50.082;20.000;2024-02-16T00:40:49;99617.96;;;3.77;75.89
21086;BME280;72320;50.082;20.000;2024-02-16T00:43:15;99617.95;;;3.77;75.94
21086;BME280;72320;50.082;20.000;2024-02-16T00:45:43;99609.02;;;3.76;75.94
21086;BME280;72320;50.082;20.000;2024-02-16T00:48:11;99610.60;;;3.76;76.03
21086;BME280;72320;50.082;20.000;2024-02-16T00:50:37;99614.63;;;3.74;75.99
21086;BME280;72320;50.082;20.000;2024-02-16T00:53:04;99615.17;;;3.74;75.95
21086;BME280;72320;50.082;20.000;2024-02-16T00:55:30;99611.59;;;3.72;76.03
21086;BME280;72320;50.082;20.000;2024-02-16T00:57:56;99610.79;;;3.69;75.89
21086;BME280;72320;50.082;20.000;2024-02-16T01:00:22;99604.17;;;3.63;75.86
21086;BME280;72320;50.082;20.000;2024-02-16T01:02:51;99604.05;;;3.62;75.97
21086;BME280;72320;50.082;20.000;2024-02-16T01:05:18;99602.70;;;3.57;75.88
21086;BME280;72320;50.082;20.000;2024-02-16T01:07:44;99601.16;;;3.55;75.90
21086;BME280;72320;50.082;20.000;2024-02-16T01:10:11;99598.05;;;3.57;75.99
21086;BME280;72320;50.082;20.000;2024-02-16T01:12:38;99596.54;;;3.56;75.96
21086;BME280;72320;50.082;20.000;2024-02-16T01:15:06;99594.59;;;3.51;75.93
21086;BME280;72320;50.082;20.000;2024-02-16T01:17:33;99591.98;;;3.47;76.08
21086;BME280;72320;50.082;20.000;2024-02-16T01:20:00;99589.88;;;3.43;75.95
21086;BME280;72320;50.082;20.000;2024-02-16T01:22:26;99588.55;;;3.41;76.03
21086;BME280;72320;50.082;20.000;2024-02-16T01:24:54;99593.60;;;3.39;75.93
21086;BME280;72320;50.082;20.000;2024-02-16T01:27:20;99594.52;;;3.35;76.03
21086;BME280;72320;50.082;20.000;2024-02-16T01:29:47;99595.70;;;3.34;76.07
21086;BME280;72320;50.082;20.000;2024-02-16T01:32:12;99596.58;;;3.32;76.11
21086;BME280;72320;50.082;20.000;2024-02-16T01:34:39;99592.94;;;3.31;76.00
21086;BME280;72320;50.082;20.000;2024-02-16T01:37:06;99591.06;;;3.28;76.03
21086;BME280;72320;50.082;20.000;2024-02-16T01:39:31;99589.61;;;3.28;76.09
21086;BME280;72320;50.082;20.000;2024-02-16T01:41:57;99584.52;;;3.27;76.09
21086;BME280;72320;50.082;20.000;2024-02-16T01:44:23;99583.84;;;3.27;76.06
21086;BME280;72320;50.082;20.000;2024-02-16T01:46:49;99582.65;;;3.24;76.05
21086;BME280;72320;50.082;20.000;2024-02-16T01:49:15;99579.09;;;3.19;76.10
21086;BME280;72320;50.082;20.000;2024-02-16T01:51:42;99578.22;;;3.12;76.05
21086;BME280;72320;50.082;20.000;2024-02-16T01:54:11;99572.81;;;3.07;76.06
21086;BME280;72320;50.082;20.000;2024-02-16T01:56:39;99574.20;;;3.06;75.97
21086;BME280;72320;50.082;20.000;2024-02-16T01:59:06;99574.88;;;3.04;76.16
21086;BME280;72320;50.082;20.000;2024-02-16T02:01:35;99578.59;;;3.00;76.07
21086;BME280;72320;50.082;20.000;2024-02-16T02:04:03;99577.52;;;2.94;76.04
21086;BME280;72320;50.082;20.000;2024-02-16T02:06:29;99574.26;;;2.88;76.07
21086;BME280;72320;50.082;20.000;2024-02-16T02:08:55;99575.59;;;2.90;76.17
21086;BME280;72320;50.082;20.000;2024-02-16T02:11:21;99580.35;;;2.88;76.18
21086;BME280;72320;50.082;20.000;2024-02-16T02:13:49;99582.32;;;2.86;76.29
21086;BME280;72320;50.082;20.000;2024-02-16T02:16:16;99582.80;;;2.83;76.28
21086;BME280;72320;50.082;20.000;2024-02-16T02:18:43;99578.14;;;2.80;76.26
21086;BME280;72320;50.082;20.000;2024-02-16T02:21:09;99577.92;;;2.77;76.32
21086;BME280;72320;50.082;20.000;2024-02-16T02:23:35;99573.48;;;2.73;76.39
21086;BME280;72320;50.082;20.000;2024-02-16T02:26:02;99569.86;;;2.72;76.48
21086;BME280;72320;50.082;20.000;2024-02-16T02:28:28;99568.73;;;2.72;76.48
21086;BME280;72320;50.082;20.000;2024-02-16T02:30:55;99565.09;;;2.70;76.59
21086;BME280;72320;50.082;20.000;2024-02-16T02:33:21;99567.05;;;2.68;76.73
21086;BME280;72320;50.082;20.000;2024-02-16T02:35:47;99564.33;;;2.60;76.84
21086;BME280;72320;50.082;20.000;2024-02-16T02:38:13;99565.27;;;2.65;77.03
21086;BME280;72320;50.082;20.000;2024-02-16T02:40:39;99571.05;;;2.70;77.12
21086;BME280;72320;50.082;20.000;2024-02-16T02:43:04;99566.16;;;2.70;77.26
21086;BME280;72320;50.082;20.000;2024-02-16T02:45:32;99573.18;;;2.68;77.25
21086;BME280;72320;50.082;20.000;2024-02-16T02:47:57;99572.84;;;2.63;77.28
21086;BME280;72320;50.082;20.000;2024-02-16T02:50:25;99569.70;;;2.59;77.34
21086;BME280;72320;50.082;20.000;2024-02-16T02:52:51;99570.36;;;2.56;77.29
21086;BME280;72320;50.082;20.000;2024-02-16T02:55:17;99570.67;;;2.56;77.30
21086;BME280;72320;50.082;20.000;2024-02-16T02:57:42;99570.15;;;2.53;77.37
21086;BME280;72320;50.082;20.000;2024-02-16T03:00:09;99566.77;;;2.51;77.32
21086;BME280;72320;50.082;20.000;2024-02-16T03:02:37;99571.66;;;2.51;77.34
21086;BME280;72320;50.082;20.000;2024-02-16T03:05:06;99576.67;;;2.55;77.40
21086;BME280;72320;50.082;20.000;2024-02-16T03:07:35;99577.83;;;2.56;77.49
21086;BME280;72320;50.082;20.000;2024-02-16T03:10:03;99581.29;;;2.56;77.53
21086;BME280;72320;50.082;20.000;2024-02-16T03:12:29;99582.60;;;2.54;77.48
21086;BME280;72320;50.082;20.000;2024-02-16T03:14:56;99581.23;;;2.52;77.57
21086;BME280;72320;50.082;20.000;2024-02-16T03:17:21;99585.14;;;2.51;77.60
21086;BME280;72320;50.082;20.000;2024-02-16T03:19:49;99586.06;;;2.51;77.51
21086;BME280;72320;50.082;20.000;2024-02-16T03:22:16;99585.40;;;2.49;77.61
21086;BME280;72320;50.082;20.000;2024-02-16T03:24:42;99589.02;;;2.45;77.56
21086;BME280;72320;50.082;20.000;2024-02-16T03:27:11;99583.67;;;2.45;77.53
21086;BME280;72320;50.082;20.000;2024-02-16T03:29:37;99583.76;;;2.43;77.62
21086;BME280;72320;50.082;20.000;2024-02-16T03:32:03;99584.08;;;2.42;77.60
21086;BME280;72320;50.082;20.000;2024-02-16T03:34:31;99581.19;;;2.41;77.71
21086;BME280;72320;50.082;20.000;2024-02-16T03:36:57;99578.39;;;2.38;77.78
21086;BME280;72320;50.082;20.000;2024-02-16T03:39:24;99579.20;;;2.41;77.62
21086;BME280;72320;50.082;20.000;2024-02-16T03:41:50;99578.77;;;2.44;77.72
21086;BME280;72320;50.082;20.000;2024-02-16T03:44:16;99581.64;;;2.48;77.80
21086;BME280;72320;50.082;20.000;2024-02-16T03:46:42;99579.94;;;2.50;77.87
21086;BME280;72320;50.082;20.000;2024-02-16T03:49:09;99579.48;;;2.52;77.88
21086;BME280;72320;50.082;20.000;2024-02-16T03:51:36;99584.02;;;2.48;77.88
21086;BME280;72320;50.082;20.000;2024-02-16T03:54:03;99578.70;;;2.43;77.85
21086;BME280;72320;50.082;20.000;2024-02-16T03:56:30;99582.27;;;2.41;77.95
21086;BME280;72320;50.082;20.000;2024-02-16T03:58:56;99581.77;;;2.40;77.91
21086;BME280;72320;50.082;20.000;2024-02-16T04:01:22;99581.02;;;2.34;77.89
21086;BME280;72320;50.082;20.000;2024-02-16T04:03:48;99580.38;;;2.31;77.92
21086;BME280;72320;50.082;20.000;2024-02-16T04:06:13;99575.66;;;2.33;77.96
21086;BME280;72320;50.082;20.000;2024-02-16T04:08:39;99572.91;;;2.32;78.12
21086;BME280;72320;50.082;20.000;2024-02-16T04:11:05;99575.26;;;2.31;78.25
21086;BME280;72320;50.082;20.000;2024-02-16T04:13:31;99571.61;;;2.32;78.36
21086;BME280;72320;50.082;20.000;2024-02-16T04:15:58;99569.83;;;2.29;78.43
21086;BME280;72320;50.082;20.000;2024-02-16T04:18:24;99568.64;;;2.28;78.44
21086;BME280;72320;50.082;20.000;2024-02-16T04:20:50;99568.48;;;2.28;78.61
21086;BME280;72320;50.082;20.000;2024-02-16T04:25:36;99570.20;;;2.29;78.75
21086;BME280;72320;50.082;20.000;2024-02-16T04:28:07;99572.86;;;2.14;78.78
21086;BME280;72320;50.082;20.000;2024-02-16T04:30:39;99566.94;;;2.14;78.81
21086;BME280;72320;50.082;20.000;2024-02-16T04:33:06;99576.16;;;2.16;78.84
21086;BME280;72320;50.082;20.000;2024-02-16T04:35:32;99574.45;;;2.13;78.95
21086;BME280;72320;50.082;20.000;2024-02-16T04:37:59;99581.73;;;2.19;78.92
21086;BME280;72320;50.082;20.000;2024-02-16T04:40:26;99583.70;;;2.24;78.99
21086;BME280;72320;50.082;20.000;2024-02-16T04:42:54;99583.22;;;2.27;78.98
21086;BME280;72320;50.082;20.000;2024-02-16T04:45:23;99581.33;;;2.30;79.04
21086;BME280;72320;50.082;20.000;2024-02-16T04:47:50;99583.41;;;2.35;79.13
21086;BME280;72320;50.082;20.000;2024-02-16T04:50:16;99581.23;;;2.32;79.12
21086;BME280;72320;50.082;20.000;2024-02-16T04:52:44;99580.31;;;2.34;79.04
21086;BME280;72320;50.082;20.000;2024-02-16T04:55:14;99579.86;;;2.36;79.09
21086;BME280;72320;50.082;20.000;2024-02-16T04:57:42;99580.77;;;2.34;78.99
21086;BME280;72320;50.082;20.000;2024-02-16T05:00:15;99579.78;;;2.34;79.04
21086;BME280;72320;50.082;20.000;2024-02-16T05:02:42;99575.95;;;2.33;79.03
21086;BME280;72320;50.082;20.000;2024-02-16T05:05:10;99574.57;;;2.32;79.02
21086;BME280;72320;50.082;20.000;2024-02-16T05:07:41;99573.36;;;2.30;78.91
21086;BME280;72320;50.082;20.000;2024-02-16T05:10:11;99572.59;;;2.30;79.02
21086;BME280;72320;50.082;20.000;2024-02-16T05:12:40;99574.24;;;2.25;79.03
21086;BME280;72320;50.082;20.000;2024-02-16T05:15:09;99571.84;;;2.21;79.08
21086;BME280;72320;50.082;20.000;2024-02-16T05:17:36;99578.32;;;2.24;79.13
21086;BME280;72320;50.082;20.000;2024-02-16T05:20:14;99576.40;;;2.23;79.14
21086;BME280;72320;50.082;20.000;2024-02-16T05:22:45;99573.75;;;2.21;79.10
21086;BME280;72320;50.082;20.000;2024-02-16T05:25:13;99575.54;;;2.26;79.25
21086;BME280;72320;50.082;20.000;2024-02-16T05:27:39;99576.21;;;2.27;79.31
21086;BME280;72320;50.082;20.000;2024-02-16T05:30:13;99574.12;;;2.30;79.32
21086;BME280;72320;50.082;20.000;2024-02-16T05:32:44;99575.80;;;2.31;79.26
21086;BME280;72320;50.082;20.000;2024-02-16T05:35:16;99577.17;;;2.30;79.31
21086;BME280;72320;50.082;20.000;2024-02-16T05:37:47;99580.36;;;2.30;79.37
21086;BME280;72320;50.082;20.000;2024-02-16T05:40:22;99581.19;;;2.31;79.31
21086;BME280;72320;50.082;20.000;2024-02-16T05:42:59;99582.61;;;2.30;79.32
21086;BME280;72320;50.082;20.000;2024-02-16T05:45:28;99581.91;;;2.30;79.20
21086;BME280;72320;50.082;20.000;2024-02-16T05:47:58;99582.55;;;2.30;79.34
21086;BME280;72320;50.082;20.000;2024-02-16T05:50:26;99583.84;;;2.32;79.46
21086;BME280;72320;50.082;20.000;2024-02-16T05:52:54;99585.25;;;2.32;79.36
21086;BME280;72320;50.082;20.000;2024-02-16T05:55:21;99591.40;;;2.30;79.43
21086;BME280;72320;50.082;20.000;2024-02-16T05:57:53;99589.90;;;2.25;79.44
21086;BME280;72320;50.082;20.000;2024-02-16T06:00:22;99589.59;;;2.16;79.50
21086;BME280;72320;50.082;20.000;2024-02-16T06:02:54;99590.73;;;2.08;79.60
21086;BME280;72320;50.082;20.000;2024-02-16T06:05:24;99594.83;;;2.03;79.61
21086;BME280;72320;50.082;20.000;2024-02-16T06:07:57;99594.77;;;2.05;79.79
21086;BME280;72320;50.082;20.000;2024-02-16T06:10:25;99597.65;;;2.17;79.85
21086;BME280;72320;50.082;20.000;2024-02-16T06:12:52;99599.70;;;2.25;79.87
21086;BME280;72320;50.082;20.000;2024-02-16T06:15:22;99600.58;;;2.34;79.95
21086;BME280;72320;50.082;20.000;2024-02-16T06:17:52;99602.90;;;2.44;79.95
21086;BME280;72320;50.082;20.000;2024-02-16T06:20:18;99604.77;;;2.52;79.90
21086;BME280;72320;50.082;20.000;2024-02-16T06:22:44;99609.26;;;2.59;79.92
21086;BME280;72320;50.082;20.000;2024-02-16T06:25:12;99613.10;;;2.63;79.99
21086;BME280;72320;50.082;20.000;2024-02-16T06:27:39;99612.69;;;2.65;79.96
21086;BME280;72320;50.082;20.000;2024-02-16T06:30:08;99619.12;;;2.66;79.92
21086;BME280;72320;50.082;20.000;2024-02-16T06:32:43;99611.27;;;2.73;79.99
21086;BME280;72320;50.082;20.000;2024-02-16T06:35:13;99611.14;;;2.82;79.95
21086;BME280;72320;50.082;20.000;2024-02-16T06:37:42;99613.19;;;2.85;79.88
21086;BME280;72320;50.082;20.000;2024-02-16T06:40:12;99616.88;;;3.00;79.86
21086;BME280;72320;50.082;20.000;2024-02-16T06:42:41;99613.71;;;3.15;79.83
21086;BME280;72320;50.082;20.000;2024-02-16T06:45:12;99617.83;;;3.24;79.79
21086;BME280;72320;50.082;20.000;2024-02-16T06:47:41;99616.92;;;3.33;79.73
21086;BME280;72320;50.082;20.000;2024-02-16T06:50:10;99614.84;;;3.45;79.73
21086;BME280;72320;50.082;20.000;2024-02-16T06:52:38;99610.77;;;3.60;79.49
21086;BME280;72320;50.082;20.000;2024-02-16T06:55:07;99613.52;;;3.72;79.54
21086;BME280;72320;50.082;20.000;2024-02-16T06:57:35;99611.77;;;3.75;79.40
21086;BME280;72320;50.082;20.000;2024-02-16T07:00:07;99609.11;;;3.86;79.27
21086;BME280;72320;50.082;20.000;2024-02-16T07:02:35;99607.64;;;3.99;79.14
21086;BME280;72320;50.082;20.000;2024-02-16T07:05:03;99606.98;;;3.99;79.10
21086;BME280;72320;50.082;20.000;2024-02-16T07:07:31;99607.10;;;3.95;78.81
21086;BME280;72320;50.082;20.000;2024-02-16T07:10:04;99606.88;;;4.04;78.83
21086;BME280;72320;50.082;20.000;2024-02-16T07:12:34;99602.84;;;4.25;78.69
21086;BME280;72320;50.082;20.000;2024-02-16T07:15:03;99603.30;;;4.39;78.54
21086;BME280;72320;50.082;20.000;2024-02-16T07:17:32;99606.90;;;4.53;78.39
21086;BME280;72320;50.082;20.000;2024-02-16T07:20:01;99610.15;;;4.65;78.15
21086;BME280;72320;50.082;20.000;2024-02-16T07:22:31;99605.85;;;4.75;77.96
21086;BME280;72320;50.082;20.000;2024-02-16T07:24:59;99604.09;;;4.91;77.76
21086;BME280;72320;50.082;20.000;2024-02-16T07:27:31;99606.73;;;5.05;77.61
21086;BME280;72320;50.082;20.000;2024-02-16T07:30:06;99607.33;;;5.21;77.28
21086;BME280;72320;50.082;20.000;2024-02-16T07:32:33;99606.27;;;5.31;77.20
21086;BME280;72320;50.082;20.000;2024-02-16T07:35:01;99602.06;;;5.33;76.93
21086;BME280;72320;50.082;20.000;2024-02-16T07:37:30;99604.02;;;5.36;76.63
21086;BME280;72320;50.082;20.000;2024-02-16T07:39:56;99610.55;;;5.32;76.40
21086;BME280;72320;50.082;20.000;2024-02-16T07:42:25;99612.94;;;5.33;76.04
21086;BME280;72320;50.082;20.000;2024-02-16T07:44:58;99612.20;;;5.55;75.83
21086;BME280;72320;50.082;20.000;2024-02-16T07:47:25;99608.34;;;5.63;75.38
21086;BME280;72320;50.082;20.000;2024-02-16T07:49:54;99603.86;;;5.55;74.98
21086;BME280;72320;50.082;20.000;2024-02-16T07:52:27;99601.49;;;5.50;74.61
21086;BME280;72320;50.082;20.000;2024-02-16T07:54:55;99607.05;;;5.47;74.29
21086;BME280;72320;50.082;20.000;2024-02-16T07:57:26;99604.46;;;5.37;74.07
21086;BME280;72320;50.082;20.000;2024-02-16T07:59:57;99603.02;;;5.41;73.94
21086;BME280;72320;50.082;20.000;2024-02-16T08:02:23;99605.54;;;5.54;73.71
21086;BME280;72320;50.082;20.000;2024-02-16T08:04:51;99603.16;;;5.55;73.60
21086;BME280;72320;50.082;20.000;2024-02-16T08:07:18;99604.98;;;5.61;73.20
21086;BME280;72320;50.082;20.000;2024-02-16T08:09:50;99603.05;;;5.68;73.15
21086;BME280;72320;50.082;20.000;2024-02-16T08:12:16;99603.31;;;5.77;72.96
21086;BME280;72320;50.082;20.000;2024-02-16T08:14:54;99603.95;;;5.96;72.75
21086;BME280;72320;50.082;20.000;2024-02-16T08:17:25;99603.63;;;6.11;72.48
21086;BME280;72320;50.082;20.000;2024-02-16T08:19:57;99605.57;;;6.27;72.33
21086;BME280;72320;50.082;20.000;2024-02-16T08:22:24;99601.49;;;6.51;72.05
21086;BME280;72320;50.082;20.000;2024-02-16T08:24:54;99604.05;;;6.67;71.50
21086;BME280;72320;50.082;20.000;2024-02-16T08:27:32;99604.88;;;6.80;71.29
21086;BME280;72320;50.082;20.000;2024-02-16T08:30:02;99608.84;;;6.90;70.80
21086;BME280;72320;50.082;20.000;2024-02-16T08:32:31;99608.51;;;7.05;70.40
21086;BME280;72320;50.082;20.000;2024-02-16T08:34:58;99611.89;;;7.39;70.20
21086;BME280;72320;50.082;20.000;2024-02-16T08:37:25;99611.08;;;7.58;69.61
21086;BME280;72320;50.082;20.000;2024-02-16T08:39:52;99610.85;;;7.75;69.18
21086;BME280;72320;50.082;20.000;2024-02-16T08:42:19;99608.08;;;7.93;68.93
21086;BME280;72320;50.082;20.000;2024-02-16T08:44:48;99609.61;;;8.03;68.49
21086;BME280;72320;50.082;20.000;2024-02-16T08:47:16;99605.61;;;8.19;68.11
21086;BME280;72320;50.082;20.000;2024-02-16T08:49:44;99606.30;;;8.35;67.67
21086;BME280;72320;50.082;20.000;2024-02-16T08:52:10;99608.59;;;8.47;67.43
21086;BME280;72320;50.082;20.000;2024-02-16T08:54:37;99606.32;;;8.52;67.08
21086;BME280;72320;50.082;20.000;2024-02-16T08:57:03;99603.02;;;8.58;66.72
21086;BME280;72320;50.082;20.000;2024-02-16T08:59:32;99601.14;;;8.69;66.41
21086;BME280;72320;50.082;20.000;2024-02-16T09:02:01;99599.49;;;8.79;66.05
21086;BME280;72320;50.082;20.000;2024-02-16T09:04:27;99601.23;;;8.91;65.72
21086;BME280;72320;50.082;20.000;2024-02-16T09:06:54;99604.10;;;8.88;65.23
21086;BME280;72320;50.082;20.000;2024-02-16T09:09:21;99602.92;;;8.86;64.83
21086;BME280;72320;50.082;20.000;2024-02-16T09:11:48;99603.62;;;8.89;64.44
21086;BME280;72320;50.082;20.000;2024-02-16T09:14:15;99598.81;;;9.01;64.17
21086;BME280;72320;50.082;20.000;2024-02-16T09:16:50;99599.44;;;9.23;63.97
21086;BME280;72320;50.082;20.000;2024-02-16T09:19:26;99601.33;;;9.41;63.72
21086;BME280;72320;50.082;20.000;2024-02-16T09:21:56;99603.94;;;9.51;63.28
21086;BME280;72320;50.082;20.000;2024-02-16T09:24:27;99602.25;;;9.62;63.04
21086;BME280;72320;50.082;20.000;2024-02-16T09:27:03;99603.69;;;9.65;62.56
21086;BME280;72320;50.082;20.000;2024-02-16T09:29:35;99600.21;;;9.74;62.31
21086;BME280;72320;50.082;20.000;2024-02-16T09:32:05;99596.10;;;9.84;62.06
21086;BME280;72320;50.082;20.000;2024-02-16T09:35:02;99594.03;;;9.93;61.93
21086;BME280;72320;50.082;20.000;2024-02-16T09:37:32;99596.01;;;10.01;61.63
21086;BME280;72320;50.082;20.000;2024-02-16T09:40:00;99594.67;;;10.14;61.32
21086;BME280;72320;50.082;20.000;2024-02-16T09:42:39;99593.75;;;10.18;60.92
21086;BME280;72320;50.082;20.000;2024-02-16T09:45:10;99595.32;;;10.29;60.67
21086;BME280;72320;50.082;20.000;2024-02-16T09:47:47;99595.04;;;10.53;60.28
21086;BME280;72320;50.082;20.000;2024-02-16T09:50:14;99596.86;;;10.90;59.51
21086;BME280;72320;50.082;20.000;2024-02-16T09:52:50;99599.54;;;11.19;59.03
21086;BME280;72320;50.082;20.000;2024-02-16T09:55:19;99596.41;;;11.38;58.40
21086;BME280;72320;50.082;20.000;2024-02-16T09:58:01;99595.20;;;11.62;57.92
21086;BME280;72320;50.082;20.000;2024-02-16T10:00:28;99596.17;;;12.15;57.04
21086;BME280;72320;50.082;20.000;2024-02-16T10:02:58;99596.23;;;12.20;56.02
21086;BME280;72320;50.082;20.000;2024-02-16T10:05:24;99590.60;;;12.35;55.45
21086;BME280;72320;50.082;20.000;2024-02-16T10:07:53;99590.09;;;12.38;55.19
21086;BME280;72320;50.082;20.000;2024-02-16T10:10:28;99590.42;;;12.25;55.12
21086;BME280;72320;50.082;20.000;2024-02-16T10:13:04;99589.21;;;12.21;55.28
21086;BME280;72320;50.082;20.000;2024-02-16T10:15:33;99585.07;;;12.09;55.25
21086;BME280;72320;50.082;20.000;2024-02-16T10:18:31;99585.98;;;11.95;55.33
21086;BME280;72320;50.082;20.000;2024-02-16T10:21:07;99580.33;;;11.87;55.52
21086;BME280;72320;50.082;20.000;2024-02-16T10:23:36;99575.80;;;11.92;55.60
21086;BME280;72320;50.082;20.000;2024-02-16T10:26:02;99571.50;;;11.83;55.55
21086;BME280;72320;50.082;20.000;2024-02-16T10:28:50;99572.08;;;11.87;55.50
21086;BME280;72320;50.082;20.000;2024-02-16T10:31:37;99574.42;;;11.96;55.56
21086;BME280;72320;50.082;20.000;2024-02-16T10:34:08;99570.34;;;11.97;55.50
21086;BME280;72320;50.082;20.000;2024-02-16T10:36:39;99565.55;;;12.12;55.49
21086;BME280;72320;50.082;20.000;2024-02-16T10:39:07;99568.80;;;12.30;55.40
21086;BME280;72320;50.082;20.000;2024-02-16T10:41:40;99563.38;;;12.48;55.24
21086;BME280;72320;50.082;20.000;2024-02-16T10:44:07;99559.92;;;12.64;55.00
21086;BME280;72320;50.082;20.000;2024-02-16T10:46:36;99562.45;;;12.74;54.75
21086;BME280;72320;50.082;20.000;2024-02-16T10:49:05;99555.25;;;12.73;54.56
21086;BME280;72320;50.082;20.000;2024-02-16T10:51:48;99552.73;;;12.64;54.40
21086;BME280;72320;50.082;20.000;2024-02-16T10:54:19;99552.02;;;12.60;54.43
21086;BME280;72320;50.082;20.000;2024-02-16T10:56:47;99545.02;;;12.65;54.32
21086;BME280;72320;50.082;20.000;2024-02-16T10:59:13;99544.15;;;12.69;54.19
21086;BME280;72320;50.082;20.000;2024-02-16T11:01:44;99547.06;;;12.84;54.13
21086;BME280;72320;50.082;20.000;2024-02-16T11:04:17;99546.73;;;13.02;54.04
21086;BME280;72320;50.082;20.000;2024-02-16T11:06:55;99545.64;;;13.12;53.78
21086;BME280;72320;50.082;20.000;2024-02-16T11:09:39;99539.69;;;13.13;53.57
21086;BME280;72320;50.082;20.000;2024-02-16T11:12:08;99533.87;;;13.07;53.42
21086;BME280;72320;50.082;20.000;2024-02-16T11:14:41;99528.88;;;13.07;53.37
21086;BME280;72320;50.082;20.000;2024-02-16T11:17:20;99525.40;;;13.18;53.28
21086;BME280;72320;50.082;20.000;2024-02-16T11:19:47;99523.80;;;13.27;53.23
21086;BME280;72320;50.082;20.000;2024-02-16T11:22:19;99517.55;;;13.40;53.08
21086;BME280;72320;50.082;20.000;2024-02-16T11:24:54;99515.31;;;13.44;52.97
21086;BME280;72320;50.082;20.000;2024-02-16T11:27:20;99510.27;;;13.37;52.77
21086;BME280;72320;50.082;20.000;2024-02-16T11:29:48;99508.20;;;13.51;52.66
21086;BME280;72320;50.082;20.000;2024-02-16T11:32:18;99507.21;;;13.64;52.43
21086;BME280;72320;50.082;20.000;2024-02-16T11:34:44;99504.67;;;13.74;52.31
21086;BME280;72320;50.082;20.000;2024-02-16T11:37:13;99507.38;;;13.83;52.09
21086;BME280;72320;50.082;20.000;2024-02-16T11:39:40;99506.30;;;13.93;51.94
21086;BME280;72320;50.082;20.000;2024-02-16T11:42:12;99502.23;;;13.99;51.78
21086;BME280;72320;50.082;20.000;2024-02-16T11:44:50;99502.80;;;14.07;51.68
21086;BME280;72320;50.082;20.000;2024-02-16T11:47:23;99500.96;;;14.12;51.58
21086;BME280;72320;50.082;20.000;2024-02-16T11:50:09;99496.44;;;14.14;51.37
21086;BME280;72320;50.082;20.000;2024-02-16T11:52:40;99494.63;;;14.05;51.25
21086;BME280;72320;50.082;20.000;2024-02-16T11:55:12;99493.75;;;14.10;51.18
21086;BME280;72320;50.082;20.000;2024-02-16T11:57:39;99493.61;;;14.29;51.04
21086;BME280;72320;50.082;20.000;2024-02-16T12:00:06;99488.69;;;14.35;50.87
21086;BME280;72320;50.082;20.000;2024-02-16T12:02:40;99485.80;;;14.41;50.77
21086;BME280;72320;50.082;20.000;2024-02-16T12:05:07;99484.27;;;14.57;50.79
21086;BME280;72320;50.082;20.000;2024-02-16T12:07:36;99484.17;;;14.68;50.53
21086;BME280;72320;50.082;20.000;2024-02-16T12:10:06;99489.34;;;14.76;50.40
21086;BME280;72320;50.082;20.000;2024-02-16T12:12:33;99489.05;;;14.81;50.20
21086;BME280;72320;50.082;20.000;2024-02-16T12:15:00;99483.44;;;14.85;50.02
21086;BME280;72320;50.082;20.000;2024-02-16T12:17:26;99484.50;;;14.86;49.87
21086;BME280;72320;50.082;20.000;2024-02-16T12:19:53;99479.14;;;14.93;49.82
21086;BME280;72320;50.082;20.000;2024-02-16T12:22:22;99474.54;;;15.02;49.62
21086;BME280;72320;50.082;20.000;2024-02-16T12:24:51;99480.13;;;15.08;49.60
21086;BME280;72320;50.082;20.000;2024-02-16T12:27:17;99473.88;;;15.12;49.47
21086;BME280;72320;50.082;20.000;2024-02-16T12:29:46;99468.98;;;15.06;49.38
21086;BME280;72320;50.082;20.000;2024-02-16T12:32:13;99465.11;;;15.09;49.38
21086;BME280;72320;50.082;20.000;2024-02-16T12:34:44;99471.61;;;15.18;49.34
21086;BME280;72320;50.082;20.000;2024-02-16T12:37:11;99470.10;;;15.25;49.37
21086;BME280;72320;50.082;20.000;2024-02-16T12:39:38;99464.45;;;15.29;49.28
21086;BME280;72320;50.082;20.000;2024-02-16T12:42:04;99465.54;;;15.38;49.25
21086;BME280;72320;50.082;20.000;2024-02-16T12:44:30;99470.62;;;15.44;49.15
21086;BME280;72320;50.082;20.000;2024-02-16T12:46:58;99465.80;;;15.39;49.00
21086;BME280;72320;50.082;20.000;2024-02-16T12:49:24;99466.95;;;15.41;49.03
21086;BME280;72320;50.082;20.000;2024-02-16T12:51:50;99461.55;;;15.33;48.81
21086;BME280;72320;50.082;20.000;2024-02-16T12:54:17;99462.55;;;15.19;48.71
21086;BME280;72320;50.082;20.000;2024-02-16T12:56:46;99465.64;;;15.16;48.83
21086;BME280;72320;50.082;20.000;2024-02-16T12:59:14;99463.80;;;15.04;48.95
21086;BME280;72320;50.082;20.000;2024-02-16T13:01:40;99462.84;;;14.94;48.92
21086;BME280;72320;50.082;20.000;2024-02-16T13:04:07;99461.52;;;14.85;49.01
21086;BME280;72320;50.082;20.000;2024-02-16T13:06:35;99453.39;;;14.93;49.20
21086;BME280;72320;50.082;20.000;2024-02-16T13:09:01;99456.59;;;14.87;49.50